NKS421 KATL-KIAH
Flight info
| Callsign | NKS421 |
|---|---|
| Flight time | 1h 50m |
| Altitude | 38000 |
| Route | KAJIN2 STNGA MHZ AEX DOOBI3 |
| Aircraft | A320/M-SDE3FGHIRWY/LB1 |
Departure
| Time | 2026-05-04 15:17 |
|---|---|
| Airport | Hartsfield Jackson Atlanta International Airport (KATL) |
Arrival
| Time | 2026-05-04 17:08 |
|---|---|
| Airport | George Bush Intercontinental Airport (KIAH) |
| Time | Latitude | Longitude | Altitude | Speed | Heading |
|---|---|---|---|---|---|
| 2026-05-04 14:52 | 33.63832 | -84.44200 | 1036 ft | 0 kts | 269° |
| 2026-05-04 15:09 | 33.63832 | -84.44195 | 1036 ft | 3 kts | 269° |
| 2026-05-04 15:10 | 33.63825 | -84.44133 | 1036 ft | 4 kts | 303° |
| 2026-05-04 15:10 | 33.63809 | -84.44117 | 1036 ft | 2 kts | 360° |
| 2026-05-04 15:10 | 33.63808 | -84.44117 | 1036 ft | 0 kts | 0° |
| 2026-05-04 15:12 | 33.63811 | -84.44117 | 1036 ft | 4 kts | 0° |
| 2026-05-04 15:12 | 33.63943 | -84.44117 | 1035 ft | 26 kts | 360° |
| 2026-05-04 15:12 | 33.64134 | -84.44119 | 1035 ft | 28 kts | 359° |
| 2026-05-04 15:12 | 33.64336 | -84.44118 | 1035 ft | 26 kts | 0° |
| 2026-05-04 15:13 | 33.64481 | -84.44075 | 1035 ft | 23 kts | 51° |
| 2026-05-04 15:13 | 33.64518 | -84.43883 | 1035 ft | 25 kts | 81° |
| 2026-05-04 15:13 | 33.64542 | -84.43668 | 1036 ft | 27 kts | 88° |
| 2026-05-04 15:13 | 33.64543 | -84.43461 | 1036 ft | 25 kts | 90° |
| 2026-05-04 15:14 | 33.64543 | -84.43233 | 1036 ft | 31 kts | 89° |
| 2026-05-04 15:14 | 33.64542 | -84.42961 | 1036 ft | 34 kts | 90° |
| 2026-05-04 15:14 | 33.64540 | -84.42670 | 1035 ft | 36 kts | 91° |
| 2026-05-04 15:14 | 33.64546 | -84.42376 | 1035 ft | 35 kts | 88° |
| 2026-05-04 15:15 | 33.64543 | -84.42102 | 1035 ft | 32 kts | 88° |
| 2026-05-04 15:15 | 33.64545 | -84.41832 | 1036 ft | 32 kts | 91° |
| 2026-05-04 15:15 | 33.64544 | -84.41560 | 1036 ft | 33 kts | 88° |
| 2026-05-04 15:16 | 33.64533 | -84.40989 | 1035 ft | 36 kts | 92° |
| 2026-05-04 15:16 | 33.64594 | -84.40806 | 1035 ft | 17 kts | 8° |
| 2026-05-04 15:16 | 33.64677 | -84.41006 | 1036 ft | 45 kts | 270° |
| 2026-05-04 15:17 | 33.64676 | -84.41666 | 1036 ft | 110 kts | 270° |
| 2026-05-04 15:17 | 33.64666 | -84.44210 | 1372 ft | 178 kts | 269° |
| 2026-05-04 15:17 | 33.64708 | -84.45685 | 2208 ft | 176 kts | 280° |
| 2026-05-04 15:18 | 33.64966 | -84.47090 | 3052 ft | 173 kts | 282° |
| 2026-05-04 15:18 | 33.65220 | -84.48488 | 3914 ft | 171 kts | 282° |
| 2026-05-04 15:18 | 33.65469 | -84.49861 | 4779 ft | 166 kts | 282° |
| 2026-05-04 15:19 | 33.65945 | -84.52498 | 6386 ft | 160 kts | 280° |
| 2026-05-04 15:19 | 33.66188 | -84.53832 | 6835 ft | 166 kts | 280° |
| 2026-05-04 15:19 | 33.66738 | -84.56874 | 7445 ft | 209 kts | 281° |
| 2026-05-04 15:20 | 33.67061 | -84.58653 | 7789 ft | 233 kts | 281° |
| 2026-05-04 15:20 | 33.67411 | -84.60654 | 8167 ft | 257 kts | 281° |
| 2026-05-04 15:20 | 33.67784 | -84.62860 | 8605 ft | 280 kts | 281° |
| 2026-05-04 15:20 | 33.68176 | -84.65192 | 9337 ft | 289 kts | 281° |
| 2026-05-04 15:21 | 33.68579 | -84.67578 | 10157 ft | 295 kts | 281° |
| 2026-05-04 15:21 | 33.69001 | -84.70082 | 10501 ft | 318 kts | 280° |
| 2026-05-04 15:21 | 33.69561 | -84.75506 | 11801 ft | 331 kts | 266° |
| 2026-05-04 15:22 | 33.69189 | -84.78237 | 12660 ft | 332 kts | 255° |
| 2026-05-04 15:22 | 33.68408 | -84.80856 | 13506 ft | 334 kts | 250° |
| 2026-05-04 15:22 | 33.66721 | -84.86093 | 14996 ft | 338 kts | 250° |
| 2026-05-04 15:23 | 33.65874 | -84.88731 | 15689 ft | 340 kts | 251° |
| 2026-05-04 15:23 | 33.65022 | -84.91384 | 16382 ft | 341 kts | 251° |
| 2026-05-04 15:23 | 33.64167 | -84.94048 | 17088 ft | 343 kts | 252° |
| 2026-05-04 15:23 | 33.63315 | -84.96697 | 17783 ft | 345 kts | 252° |
| 2026-05-04 15:24 | 33.61569 | -85.02106 | 19092 ft | 349 kts | 252° |
| 2026-05-04 15:24 | 33.59798 | -85.07567 | 20340 ft | 353 kts | 252° |
| 2026-05-04 15:25 | 33.58902 | -85.10324 | 20954 ft | 355 kts | 252° |
| 2026-05-04 15:25 | 33.58002 | -85.13094 | 21519 ft | 358 kts | 252° |
| 2026-05-04 15:25 | 33.57097 | -85.15881 | 22074 ft | 360 kts | 252° |
| 2026-05-04 15:26 | 33.55268 | -85.21508 | 23189 ft | 364 kts | 253° |
| 2026-05-04 15:26 | 33.54594 | -85.24423 | 23743 ft | 363 kts | 261° |
| 2026-05-04 15:26 | 33.53523 | -85.30335 | 24650 ft | 367 kts | 261° |
| 2026-05-04 15:27 | 33.52971 | -85.33332 | 25077 ft | 369 kts | 260° |
| 2026-05-04 15:27 | 33.51848 | -85.39376 | 26009 ft | 372 kts | 260° |
| 2026-05-04 15:28 | 33.50714 | -85.45422 | 26908 ft | 376 kts | 260° |
| 2026-05-04 15:28 | 33.50142 | -85.48488 | 27342 ft | 378 kts | 260° |
| 2026-05-04 15:28 | 33.48991 | -85.54675 | 28210 ft | 382 kts | 260° |
| 2026-05-04 15:29 | 33.48411 | -85.57786 | 28642 ft | 383 kts | 260° |
| 2026-05-04 15:30 | 33.46052 | -85.70375 | 30356 ft | 391 kts | 260° |
| 2026-05-04 15:30 | 33.44244 | -85.79976 | 31445 ft | 396 kts | 260° |
| 2026-05-04 15:31 | 33.43026 | -85.86421 | 32298 ft | 395 kts | 260° |
| 2026-05-04 15:31 | 33.42418 | -85.89621 | 32839 ft | 393 kts | 260° |
| 2026-05-04 15:32 | 33.40616 | -85.99082 | 34413 ft | 386 kts | 260° |
| 2026-05-04 15:32 | 33.39419 | -86.05318 | 35308 ft | 382 kts | 261° |
| 2026-05-04 15:33 | 33.38236 | -86.11487 | 36154 ft | 378 kts | 261° |
| 2026-05-04 15:34 | 33.36489 | -86.20594 | 37334 ft | 373 kts | 261° |
| 2026-05-04 15:34 | 33.35908 | -86.23618 | 37724 ft | 371 kts | 262° |
| 2026-05-04 15:34 | 33.34750 | -86.29621 | 38137 ft | 369 kts | 262° |
| 2026-05-04 15:35 | 33.33009 | -86.38566 | 38138 ft | 367 kts | 262° |
| 2026-05-04 15:36 | 33.31270 | -86.47487 | 38151 ft | 367 kts | 262° |
| 2026-05-04 15:36 | 33.30114 | -86.53428 | 38137 ft | 367 kts | 262° |
| 2026-05-04 15:37 | 33.28950 | -86.59362 | 38143 ft | 367 kts | 262° |
| 2026-05-04 15:37 | 33.27790 | -86.65277 | 38146 ft | 368 kts | 262° |
| 2026-05-04 15:38 | 33.26616 | -86.71232 | 38128 ft | 368 kts | 262° |
| 2026-05-04 15:38 | 33.25439 | -86.77191 | 38150 ft | 368 kts | 262° |
| 2026-05-04 15:39 | 33.24262 | -86.83148 | 38150 ft | 369 kts | 262° |
| 2026-05-04 15:40 | 33.22489 | -86.92092 | 38161 ft | 369 kts | 261° |
| 2026-05-04 15:40 | 33.21295 | -86.98049 | 38152 ft | 369 kts | 261° |
| 2026-05-04 15:41 | 33.20104 | -87.04002 | 38152 ft | 368 kts | 262° |
| 2026-05-04 15:41 | 33.18922 | -87.09920 | 38146 ft | 368 kts | 261° |
| 2026-05-04 15:42 | 33.17729 | -87.15862 | 38134 ft | 368 kts | 261° |
| 2026-05-04 15:42 | 33.16532 | -87.21801 | 38113 ft | 368 kts | 261° |
| 2026-05-04 15:43 | 33.15331 | -87.27749 | 38119 ft | 368 kts | 261° |
| 2026-05-04 15:43 | 33.14136 | -87.33686 | 38117 ft | 368 kts | 261° |
| 2026-05-04 15:44 | 33.12933 | -87.39614 | 38101 ft | 367 kts | 262° |
| 2026-05-04 15:44 | 33.11724 | -87.45517 | 38139 ft | 366 kts | 261° |
| 2026-05-04 15:45 | 33.10361 | -87.51372 | 38148 ft | 366 kts | 259° |
| 2026-05-04 15:45 | 33.08879 | -87.57182 | 38152 ft | 366 kts | 259° |
| 2026-05-04 15:46 | 33.07415 | -87.62978 | 38152 ft | 365 kts | 259° |
| 2026-05-04 15:46 | 33.05984 | -87.68734 | 38147 ft | 364 kts | 259° |
| 2026-05-04 15:47 | 33.04546 | -87.74524 | 38114 ft | 364 kts | 259° |
| 2026-05-04 15:47 | 33.03106 | -87.80321 | 38123 ft | 364 kts | 259° |
| 2026-05-04 15:48 | 33.01666 | -87.86102 | 38121 ft | 364 kts | 259° |
| 2026-05-04 15:48 | 32.99500 | -87.94770 | 38124 ft | 364 kts | 259° |
| 2026-05-04 15:49 | 32.98052 | -88.00541 | 38123 ft | 364 kts | 259° |
| 2026-05-04 15:49 | 32.96610 | -88.06282 | 38123 ft | 364 kts | 259° |
| 2026-05-04 15:50 | 32.95154 | -88.12056 | 38109 ft | 364 kts | 260° |
| 2026-05-04 15:50 | 32.93697 | -88.17816 | 38121 ft | 363 kts | 260° |
| 2026-05-04 15:51 | 32.92486 | -88.22601 | 38130 ft | 363 kts | 260° |
| 2026-05-04 15:51 | 32.91031 | -88.28359 | 38132 ft | 363 kts | 260° |
| 2026-05-04 15:52 | 32.89576 | -88.34106 | 38134 ft | 363 kts | 260° |
| 2026-05-04 15:52 | 32.88115 | -88.39856 | 38134 ft | 363 kts | 260° |
| 2026-05-04 15:53 | 32.86649 | -88.45598 | 38112 ft | 362 kts | 260° |
| 2026-05-04 15:53 | 32.85176 | -88.51331 | 38103 ft | 362 kts | 261° |
| 2026-05-04 15:54 | 32.83714 | -88.57034 | 38122 ft | 362 kts | 261° |
| 2026-05-04 15:54 | 32.82250 | -88.62762 | 38106 ft | 362 kts | 261° |
| 2026-05-04 15:55 | 32.80777 | -88.68487 | 38140 ft | 362 kts | 261° |
| 2026-05-04 15:55 | 32.79305 | -88.74208 | 38162 ft | 362 kts | 261° |
| 2026-05-04 15:56 | 32.77824 | -88.79923 | 38164 ft | 362 kts | 261° |
| 2026-05-04 15:56 | 32.76345 | -88.85637 | 38154 ft | 362 kts | 261° |
| 2026-05-04 15:57 | 32.74861 | -88.91353 | 38158 ft | 362 kts | 261° |
| 2026-05-04 15:57 | 32.73391 | -88.97032 | 38127 ft | 362 kts | 261° |
| 2026-05-04 15:58 | 32.71905 | -89.02749 | 38096 ft | 362 kts | 261° |
| 2026-05-04 15:58 | 32.70411 | -89.08460 | 38129 ft | 362 kts | 261° |
| 2026-05-04 15:59 | 32.68920 | -89.14171 | 38124 ft | 362 kts | 261° |
| 2026-05-04 15:59 | 32.67426 | -89.19882 | 38108 ft | 362 kts | 261° |
| 2026-05-04 16:00 | 32.65924 | -89.25587 | 38081 ft | 362 kts | 262° |
| 2026-05-04 16:00 | 32.64431 | -89.31252 | 38076 ft | 362 kts | 262° |
| 2026-05-04 16:01 | 32.62927 | -89.36956 | 38045 ft | 362 kts | 262° |
| 2026-05-04 16:01 | 32.61419 | -89.42660 | 37988 ft | 362 kts | 262° |
| 2026-05-04 16:02 | 32.59912 | -89.48373 | 37985 ft | 364 kts | 262° |
| 2026-05-04 16:03 | 32.57639 | -89.56952 | 38018 ft | 366 kts | 262° |
| 2026-05-04 16:03 | 32.56103 | -89.62710 | 38029 ft | 366 kts | 262° |
| 2026-05-04 16:04 | 32.54562 | -89.68477 | 38039 ft | 367 kts | 261° |
| 2026-05-04 16:04 | 32.52248 | -89.77117 | 38073 ft | 367 kts | 261° |
| 2026-05-04 16:05 | 32.50700 | -89.82884 | 38082 ft | 367 kts | 261° |
| 2026-05-04 16:06 | 32.48392 | -89.91499 | 38085 ft | 367 kts | 261° |
| 2026-05-04 16:07 | 32.45287 | -90.03021 | 38126 ft | 367 kts | 262° |
| 2026-05-04 16:07 | 32.42654 | -90.11588 | 38125 ft | 380 kts | 251° |
| 2026-05-04 16:08 | 32.41357 | -90.14326 | 38125 ft | 381 kts | 251° |
| 2026-05-04 16:09 | 32.34831 | -90.27983 | 38123 ft | 381 kts | 251° |
| 2026-05-04 16:10 | 32.29614 | -90.38911 | 38081 ft | 384 kts | 251° |
| 2026-05-04 16:11 | 32.24333 | -90.49941 | 38096 ft | 387 kts | 251° |
| 2026-05-04 16:12 | 32.16344 | -90.66556 | 38120 ft | 388 kts | 251° |
| 2026-05-04 16:13 | 32.11008 | -90.77603 | 38100 ft | 388 kts | 251° |
| 2026-05-04 16:14 | 32.05628 | -90.88694 | 38075 ft | 390 kts | 250° |
| 2026-05-04 16:16 | 31.98898 | -91.02559 | 38120 ft | 392 kts | 250° |
| 2026-05-04 16:17 | 31.92106 | -91.16478 | 38106 ft | 392 kts | 251° |
| 2026-05-04 16:18 | 31.86680 | -91.27585 | 38126 ft | 392 kts | 251° |
| 2026-05-04 16:19 | 31.79859 | -91.41475 | 38129 ft | 392 kts | 251° |
| 2026-05-04 16:20 | 31.73037 | -91.55319 | 38092 ft | 392 kts | 252° |
| 2026-05-04 16:22 | 31.66194 | -91.69173 | 38124 ft | 392 kts | 252° |
| 2026-05-04 16:23 | 31.57976 | -91.85720 | 38125 ft | 392 kts | 252° |
| 2026-05-04 16:25 | 31.49745 | -92.02209 | 38070 ft | 390 kts | 254° |
| 2026-05-04 16:26 | 31.40117 | -92.21437 | 38117 ft | 392 kts | 253° |
| 2026-05-04 16:28 | 31.33197 | -92.35174 | 38126 ft | 391 kts | 254° |
| 2026-05-04 16:29 | 31.23678 | -92.54322 | 38131 ft | 385 kts | 257° |
| 2026-05-04 16:31 | 31.17704 | -92.68242 | 38088 ft | 385 kts | 257° |
| 2026-05-04 16:32 | 31.10344 | -92.84874 | 38150 ft | 384 kts | 257° |
| 2026-05-04 16:33 | 31.05427 | -92.95956 | 38130 ft | 384 kts | 257° |
| 2026-05-04 16:34 | 31.02961 | -93.01527 | 37899 ft | 392 kts | 256° |
| 2026-05-04 16:34 | 31.01707 | -93.04363 | 37634 ft | 394 kts | 256° |
| 2026-05-04 16:35 | 30.97938 | -93.12776 | 36811 ft | 389 kts | 255° |
| 2026-05-04 16:35 | 30.94223 | -93.21084 | 36055 ft | 382 kts | 256° |
| 2026-05-04 16:36 | 30.93004 | -93.23820 | 35816 ft | 379 kts | 256° |
| 2026-05-04 16:36 | 30.90578 | -93.29243 | 35297 ft | 376 kts | 256° |
| 2026-05-04 16:37 | 30.88166 | -93.34611 | 34830 ft | 372 kts | 256° |
| 2026-05-04 16:37 | 30.86969 | -93.37278 | 34597 ft | 370 kts | 256° |
| 2026-05-04 16:37 | 30.84604 | -93.42521 | 34009 ft | 361 kts | 256° |
| 2026-05-04 16:38 | 30.82297 | -93.47630 | 33182 ft | 352 kts | 256° |
| 2026-05-04 16:39 | 30.78942 | -93.55094 | 32016 ft | 342 kts | 255° |
| 2026-05-04 16:39 | 30.76768 | -93.59922 | 31277 ft | 337 kts | 255° |
| 2026-05-04 16:40 | 30.74602 | -93.64715 | 30556 ft | 333 kts | 254° |
| 2026-05-04 16:40 | 30.72462 | -93.69447 | 29818 ft | 328 kts | 254° |
| 2026-05-04 16:41 | 30.70713 | -93.73302 | 29260 ft | 321 kts | 253° |
| 2026-05-04 16:41 | 30.67639 | -93.80075 | 28204 ft | 312 kts | 253° |
| 2026-05-04 16:42 | 30.64649 | -93.86692 | 27113 ft | 304 kts | 253° |
| 2026-05-04 16:43 | 30.62690 | -93.91020 | 26377 ft | 302 kts | 253° |
| 2026-05-04 16:43 | 30.60739 | -93.95315 | 25622 ft | 300 kts | 252° |
| 2026-05-04 16:43 | 30.59767 | -93.97454 | 25235 ft | 299 kts | 251° |
| 2026-05-04 16:44 | 30.55890 | -94.05994 | 23652 ft | 301 kts | 250° |
| 2026-05-04 16:45 | 30.53930 | -94.10295 | 22786 ft | 302 kts | 249° |
| 2026-05-04 16:46 | 30.50872 | -94.16989 | 21533 ft | 314 kts | 248° |
| 2026-05-04 16:46 | 30.48820 | -94.21433 | 20690 ft | 311 kts | 248° |
| 2026-05-04 16:47 | 30.46790 | -94.25842 | 19868 ft | 309 kts | 248° |
| 2026-05-04 16:47 | 30.44771 | -94.30228 | 19038 ft | 307 kts | 247° |
| 2026-05-04 16:48 | 30.41772 | -94.36746 | 17775 ft | 305 kts | 247° |
| 2026-05-04 16:48 | 30.40773 | -94.38908 | 17365 ft | 304 kts | 245° |
| 2026-05-04 16:49 | 30.37904 | -94.42577 | 16552 ft | 313 kts | 226° |
| 2026-05-04 16:49 | 30.34539 | -94.45775 | 15768 ft | 311 kts | 226° |
| 2026-05-04 16:50 | 30.31244 | -94.48905 | 14860 ft | 304 kts | 226° |
| 2026-05-04 16:50 | 30.27983 | -94.52007 | 14096 ft | 302 kts | 226° |
| 2026-05-04 16:51 | 30.24777 | -94.55064 | 13273 ft | 299 kts | 225° |
| 2026-05-04 16:51 | 30.23202 | -94.56557 | 12966 ft | 285 kts | 225° |
| 2026-05-04 16:51 | 30.20230 | -94.59371 | 12448 ft | 274 kts | 225° |
| 2026-05-04 16:52 | 30.17223 | -94.62084 | 11821 ft | 277 kts | 223° |
| 2026-05-04 16:52 | 30.15693 | -94.63438 | 11547 ft | 275 kts | 223° |
| 2026-05-04 16:53 | 30.12661 | -94.66120 | 10858 ft | 276 kts | 223° |
| 2026-05-04 16:53 | 30.08242 | -94.70029 | 9881 ft | 254 kts | 222° |
| 2026-05-04 16:54 | 30.06857 | -94.71260 | 9488 ft | 247 kts | 222° |
| 2026-05-04 16:55 | 30.01945 | -94.75754 | 8410 ft | 200 kts | 232° |
| 2026-05-04 16:55 | 30.00830 | -94.78454 | 7793 ft | 176 kts | 263° |
| 2026-05-04 16:56 | 30.00695 | -94.81026 | 7430 ft | 150 kts | 268° |
| 2026-05-04 16:56 | 30.00642 | -94.84546 | 6962 ft | 144 kts | 270° |
| 2026-05-04 16:57 | 30.00647 | -94.85692 | 6816 ft | 144 kts | 270° |
| 2026-05-04 16:57 | 30.00658 | -94.87959 | 6518 ft | 140 kts | 268° |
| 2026-05-04 16:58 | 30.00671 | -94.91321 | 6057 ft | 140 kts | 267° |
| 2026-05-04 16:58 | 30.00674 | -94.92436 | 5908 ft | 138 kts | 266° |
| 2026-05-04 16:59 | 30.00680 | -94.94669 | 5610 ft | 143 kts | 267° |
| 2026-05-04 17:00 | 30.00691 | -94.99291 | 5013 ft | 144 kts | 265° |
| 2026-05-04 17:00 | 30.00697 | -95.02756 | 4552 ft | 143 kts | 263° |
| 2026-05-04 17:01 | 30.00701 | -95.05056 | 4241 ft | 144 kts | 263° |
| 2026-05-04 17:01 | 30.00705 | -95.07368 | 3935 ft | 144 kts | 264° |
| 2026-05-04 17:02 | 30.00708 | -95.09696 | 3627 ft | 145 kts | 263° |
| 2026-05-04 17:02 | 30.00711 | -95.11990 | 3326 ft | 143 kts | 263° |
| 2026-05-04 17:03 | 30.00712 | -95.13136 | 3170 ft | 143 kts | 263° |
| 2026-05-04 17:03 | 30.00713 | -95.14288 | 3097 ft | 144 kts | 263° |
| 2026-05-04 17:03 | 30.00716 | -95.16564 | 2841 ft | 137 kts | 263° |
| 2026-05-04 17:04 | 30.00717 | -95.18749 | 2495 ft | 137 kts | 263° |
| 2026-05-04 17:04 | 30.00718 | -95.20924 | 2144 ft | 134 kts | 263° |
| 2026-05-04 17:05 | 30.00719 | -95.23086 | 1792 ft | 136 kts | 265° |
| 2026-05-04 17:05 | 30.00719 | -95.25247 | 1433 ft | 136 kts | 264° |
| 2026-05-04 17:06 | 30.00719 | -95.27459 | 1068 ft | 140 kts | 264° |
| 2026-05-04 17:06 | 30.00719 | -95.28582 | 892 ft | 140 kts | 262° |
| 2026-05-04 17:07 | 30.00719 | -95.30784 | 531 ft | 136 kts | 262° |
| 2026-05-04 17:07 | 30.00709 | -95.31505 | 426 ft | 135 kts | 263° |
| 2026-05-04 17:07 | 30.00714 | -95.32962 | 186 ft | 135 kts | 265° |
| 2026-05-04 17:07 | 30.00714 | -95.33967 | 103 ft | 93 kts | 265° |
| 2026-05-04 17:08 | 30.00707 | -95.34391 | 98 ft | 41 kts | 270° |